createdAt,value
2022-12-13T00:00:09.419Z,0.15
2022-12-13T00:02:43.042Z,0.14
2022-12-13T00:05:15.793Z,0.13
2022-12-13T00:07:44.585Z,0.08
2022-12-13T00:10:13.399Z,-0.06
2022-12-13T00:12:43.659Z,0.02
2022-12-13T00:15:16.922Z,-0.01
2022-12-13T00:17:59.210Z,-0.02
2022-12-13T00:20:29.353Z,0.08
2022-12-13T00:22:57.828Z,0.07
2022-12-13T00:25:35.258Z,0.02
2022-12-13T00:28:05.555Z,0.12
2022-12-13T00:30:33.742Z,0.14
2022-12-13T00:33:03.919Z,0.19
2022-12-13T00:35:32.603Z,0.19
2022-12-13T00:38:00.679Z,0.19
2022-12-13T00:40:29.503Z,0.16
2022-12-13T00:43:01.951Z,0.13
2022-12-13T00:45:30.990Z,0.16
2022-12-13T00:47:58.751Z,0.19
2022-12-13T00:50:31.101Z,0.06
2022-12-13T00:53:00.564Z,0.06
2022-12-13T00:55:29.337Z,0.15
2022-12-13T00:57:58.358Z,0.16
2022-12-13T01:00:29.109Z,0.11
2022-12-13T01:02:56.875Z,0.16
2022-12-13T01:06:04.109Z,0.06
2022-12-13T01:08:19.181Z,0.07
2022-12-13T01:10:48.142Z,-0.06
2022-12-13T01:13:17.616Z,-0.02
2022-12-13T01:15:46.670Z,-0.09
2022-12-13T01:18:18.494Z,-0.10
2022-12-13T01:21:07.469Z,0.12
2022-12-13T01:23:35.591Z,0.00
2022-12-13T01:26:10.841Z,0.01
2022-12-13T01:28:39.245Z,-0.09
2022-12-13T01:31:11.387Z,-0.07
2022-12-13T01:33:39.972Z,-0.27
2022-12-13T01:36:13.084Z,-0.21
2022-12-13T01:38:44.481Z,-0.36
2022-12-13T01:41:27.297Z,-0.36
2022-12-13T01:44:01.491Z,-0.34
2022-12-13T01:46:32.421Z,-0.18
2022-12-13T01:49:05.709Z,-0.45
2022-12-13T01:51:56.654Z,-0.73
2022-12-13T01:54:33.999Z,-0.75
2022-12-13T01:57:06.844Z,-0.82
2022-12-13T01:59:37.113Z,-0.73
2022-12-13T02:02:05.880Z,-0.81
2022-12-13T02:04:56.177Z,-0.80
2022-12-13T02:07:32.170Z,-0.81
2022-12-13T02:10:04.035Z,-0.89
2022-12-13T02:12:35.355Z,-1.13
2022-12-13T02:15:12.879Z,-1.17
2022-12-13T02:17:45.917Z,-1.09
2022-12-13T02:20:34.603Z,-1.05
2022-12-13T02:23:26.596Z,-1.09
2022-12-13T02:26:25.151Z,-1.06
2022-12-13T02:29:30.760Z,-1.09
2022-12-13T02:32:14.438Z,-1.15
2022-12-13T02:34:50.775Z,-1.25
2022-12-13T02:37:31.372Z,-1.33
2022-12-13T02:40:06.755Z,-1.35
2022-12-13T02:42:42.158Z,-1.43
2022-12-13T02:45:20.968Z,-1.46
2022-12-13T02:47:53.176Z,-1.43
2022-12-13T02:50:23.784Z,-1.64
2022-12-13T02:52:52.793Z,-1.63
2022-12-13T02:55:23.927Z,-1.62
2022-12-13T02:57:54.048Z,-1.29
2022-12-13T03:00:49.649Z,-1.44
2022-12-13T03:03:48.412Z,-1.52
2022-12-13T03:06:41.143Z,-1.50
2022-12-13T03:09:27.001Z,-1.56
2022-12-13T03:12:31.962Z,-1.67
2022-12-13T03:15:35.162Z,-1.56
2022-12-13T03:18:18.145Z,-1.57
2022-12-13T03:20:55.236Z,-1.53
2022-12-13T03:23:23.940Z,-1.74
2022-12-13T03:25:57.379Z,-1.66
2022-12-13T03:28:25.284Z,-1.47
2022-12-13T03:30:52.951Z,-1.67
2022-12-13T03:33:20.623Z,-1.72
2022-12-13T03:35:48.480Z,-1.76
2022-12-13T03:38:21.903Z,-1.99
2022-12-13T03:40:58.513Z,-1.68
2022-12-13T03:43:26.634Z,-1.90
2022-12-13T03:45:55.183Z,-1.74
2022-12-13T03:48:23.775Z,-1.84
2022-12-13T03:50:53.199Z,-1.78
2022-12-13T03:53:32.557Z,-1.69
2022-12-13T03:56:06.835Z,-1.72
2022-12-13T03:58:37.627Z,-1.93
2022-12-13T04:01:10.909Z,-2.07
2022-12-13T04:03:41.895Z,-1.99
2022-12-13T04:06:10.910Z,-2.04
2022-12-13T04:08:39.956Z,-2.01
2022-12-13T04:11:26.834Z,-2.03
2022-12-13T04:13:55.343Z,-2.05
2022-12-13T04:16:24.277Z,-2.10
2022-12-13T04:18:52.300Z,-2.03
2022-12-13T04:21:20.039Z,-2.03
2022-12-13T04:23:47.793Z,-2.11
2022-12-13T04:26:15.654Z,-2.14
2022-12-13T04:28:43.244Z,-2.09
2022-12-13T04:31:10.955Z,-2.12
2022-12-13T04:33:38.651Z,-2.16
2022-12-13T04:36:06.697Z,-2.13
2022-12-13T04:38:34.305Z,-2.13
2022-12-13T04:41:13.865Z,-2.08
2022-12-13T04:43:41.570Z,-2.21
2022-12-13T04:46:09.286Z,-2.15
2022-12-13T04:48:37.032Z,-2.14
2022-12-13T04:51:04.655Z,-2.16
2022-12-13T04:53:32.549Z,-2.00
2022-12-13T04:56:03.211Z,-1.86
2022-12-13T04:58:31.571Z,-1.69
2022-12-13T05:00:59.353Z,-1.33
2022-12-13T05:03:29.036Z,-0.92
2022-12-13T05:05:57.204Z,-0.46
2022-12-13T05:08:24.926Z,-0.01
2022-12-13T05:10:54.498Z,0.41
2022-12-13T05:13:22.070Z,0.98
2022-12-13T05:15:56.707Z,1.45
2022-12-13T05:18:24.531Z,2.01
2022-12-13T05:20:52.354Z,2.53
2022-12-13T05:23:22.189Z,2.98
2022-12-13T05:25:51.667Z,3.52
2022-12-13T05:28:28.358Z,3.93
2022-12-13T05:30:59.663Z,4.29
2022-12-13T05:33:27.409Z,4.79
2022-12-13T05:35:59.367Z,5.21
2022-12-13T05:38:29.647Z,5.60
2022-12-13T05:40:57.437Z,5.95
2022-12-13T05:43:42.179Z,6.32
2022-12-13T05:46:12.849Z,6.66
2022-12-13T05:48:41.450Z,7.16
2022-12-13T05:51:11.933Z,7.58
2022-12-13T05:53:42.114Z,7.85
2022-12-13T05:56:11.688Z,8.12
2022-12-13T05:58:40.810Z,8.55
2022-12-13T06:01:11.399Z,8.83
2022-12-13T06:03:40.257Z,9.26
2022-12-13T06:06:09.776Z,9.49
2022-12-13T06:08:37.762Z,9.74
2022-12-13T06:11:10.970Z,9.71
2022-12-13T06:13:43.263Z,9.97
2022-12-13T06:16:21.773Z,10.37
2022-12-13T06:19:02.739Z,10.76
2022-12-13T06:21:41.769Z,11.14
2022-12-13T06:24:22.400Z,11.17
2022-12-13T06:26:51.191Z,11.82
2022-12-13T06:29:23.199Z,11.99
2022-12-13T06:32:02.293Z,11.84
2022-12-13T06:34:36.135Z,11.61
2022-12-13T06:37:11.279Z,11.26
2022-12-13T06:39:39.274Z,11.11
2022-12-13T06:42:11.104Z,11.30
2022-12-13T06:44:38.765Z,11.18
2022-12-13T06:47:11.808Z,11.06
2022-12-13T06:49:44.233Z,10.79
2022-12-13T06:52:14.542Z,10.50
2022-12-13T06:54:43.412Z,10.24
2022-12-13T06:57:14.593Z,10.17
2022-12-13T06:59:42.992Z,9.88
2022-12-13T07:02:24.424Z,9.64
2022-12-13T07:04:53.832Z,9.25
2022-12-13T07:07:21.891Z,8.99
2022-12-13T07:09:49.576Z,8.72
2022-12-13T07:12:18.966Z,8.77
2022-12-13T07:14:46.575Z,8.63
2022-12-13T07:17:32.640Z,8.55
2022-12-13T07:20:05.025Z,8.30
2022-12-13T07:22:35.002Z,8.03
2022-12-13T07:25:05.538Z,7.59
2022-12-13T07:27:34.405Z,7.20
2022-12-13T07:30:02.468Z,6.90
2022-12-13T07:32:31.587Z,6.53
2022-12-13T07:34:59.289Z,6.47
2022-12-13T07:37:29.342Z,6.12
2022-12-13T07:40:04.019Z,5.75
2022-12-13T07:42:32.650Z,5.60
2022-12-13T07:45:00.747Z,5.37
2022-12-13T07:47:32.479Z,5.15
2022-12-13T07:50:01.662Z,4.88
2022-12-13T07:52:31.425Z,4.65
2022-12-13T07:54:59.237Z,4.58
2022-12-13T07:57:27.429Z,4.49
2022-12-13T07:59:55.108Z,4.24
2022-12-13T08:02:22.926Z,4.12
2022-12-13T08:04:54.627Z,3.97
2022-12-13T08:07:23.159Z,3.78
2022-12-13T08:09:53.011Z,3.71
2022-12-13T08:12:22.439Z,3.46
2022-12-13T08:14:53.326Z,3.23
2022-12-13T08:17:21.458Z,3.17
2022-12-13T08:19:49.201Z,3.01
2022-12-13T08:22:24.196Z,3.15
2022-12-13T08:24:52.359Z,2.90
2022-12-13T08:27:20.082Z,2.74
2022-12-13T08:29:49.364Z,2.62
2022-12-13T08:32:17.562Z,2.42
2022-12-13T08:34:46.128Z,2.28
2022-12-13T08:37:14.252Z,2.37
2022-12-13T08:39:42.125Z,2.35
2022-12-13T08:42:18.831Z,2.36
2022-12-13T08:44:52.972Z,2.13
2022-12-13T08:47:25.536Z,2.21
2022-12-13T08:50:04.558Z,2.26
2022-12-13T08:52:40.499Z,1.93
2022-12-13T08:55:11.432Z,1.83
2022-12-13T08:57:41.008Z,1.86
2022-12-13T09:00:12.591Z,1.88
2022-12-13T09:02:40.440Z,1.77
2022-12-13T09:05:09.934Z,1.73
2022-12-13T09:07:41.391Z,1.46
2022-12-13T09:10:27.082Z,1.57
2022-12-13T09:13:02.464Z,1.51
2022-12-13T09:15:46.139Z,1.28
2022-12-13T09:18:15.163Z,1.31
2022-12-13T09:20:52.439Z,1.22
2022-12-13T09:23:24.077Z,1.15
2022-12-13T09:25:56.597Z,1.01
2022-12-13T09:28:37.304Z,0.88
2022-12-13T09:31:14.568Z,1.11
2022-12-13T09:33:43.279Z,0.97
2022-12-13T09:36:17.791Z,1.01
2022-12-13T09:38:46.117Z,0.86
2022-12-13T09:41:20.461Z,0.96
2022-12-13T09:44:01.372Z,0.95
2022-12-13T09:46:44.190Z,0.94
2022-12-13T09:49:23.618Z,0.90
2022-12-13T09:52:11.797Z,0.74
2022-12-13T09:54:48.729Z,0.72
2022-12-13T09:57:35.023Z,0.86
2022-12-13T10:00:07.473Z,0.70
2022-12-13T10:02:52.205Z,0.76
2022-12-13T10:05:34.136Z,0.67
2022-12-13T10:08:21.207Z,0.65
2022-12-13T10:10:51.697Z,0.39
2022-12-13T10:13:26.030Z,0.46
2022-12-13T10:16:08.555Z,0.20
2022-12-13T10:18:39.449Z,0.45
2022-12-13T10:21:36.625Z,0.46
2022-12-13T10:24:31.450Z,0.33
2022-12-13T10:27:15.895Z,0.33
2022-12-13T10:30:13.131Z,0.53
2022-12-13T10:32:56.092Z,0.26
2022-12-13T10:35:28.580Z,0.32
2022-12-13T10:37:58.597Z,0.17
2022-12-13T10:40:33.435Z,0.17
2022-12-13T10:43:15.673Z,0.06
2022-12-13T10:45:59.611Z,0.05
2022-12-13T10:48:50.304Z,0.03
2022-12-13T10:51:21.177Z,-0.04
2022-12-13T10:53:50.230Z,-0.13
2022-12-13T10:56:23.395Z,-0.17
2022-12-13T10:59:23.378Z,-0.07
2022-12-13T11:01:51.121Z,-0.25
2022-12-13T11:04:29.616Z,-0.22
2022-12-13T11:07:00.622Z,-0.35
2022-12-13T11:09:39.208Z,-0.40
2022-12-13T11:12:21.414Z,-0.46
2022-12-13T11:15:01.053Z,-0.64
2022-12-13T11:17:31.776Z,-0.56
2022-12-13T11:20:04.612Z,-0.57
2022-12-13T11:22:38.295Z,-0.82
2022-12-13T11:25:19.998Z,-0.72
2022-12-13T11:28:37.570Z,-0.61
2022-12-13T11:31:28.108Z,-0.73
2022-12-13T11:33:58.437Z,-0.99
2022-12-13T11:36:58.385Z,-0.86
2022-12-13T11:39:35.833Z,-0.96
2022-12-13T11:42:12.397Z,-0.97
2022-12-13T11:45:04.345Z,-1.00
2022-12-13T11:47:40.941Z,-1.30
2022-12-13T11:50:32.699Z,-1.46
2022-12-13T11:53:09.838Z,-1.49
2022-12-13T11:55:44.893Z,-1.73
2022-12-13T11:59:10.130Z,-1.78
2022-12-13T12:01:53.816Z,-1.89
2022-12-13T12:04:32.629Z,-1.96
2022-12-13T12:10:36.821Z,-2.21
2022-12-13T12:13:29.042Z,-2.51
2022-12-13T12:16:15.153Z,-2.78
2022-12-13T12:18:42.634Z,-2.96
2022-12-13T12:22:12.049Z,-2.77
2022-12-13T12:24:53.927Z,-2.99
2022-12-13T12:27:31.334Z,-3.22
2022-12-13T12:30:09.478Z,-3.36
2022-12-13T12:33:00.327Z,-3.36
2022-12-13T12:35:49.647Z,-3.48
2022-12-13T12:38:35.815Z,-3.51
2022-12-13T12:41:32.374Z,-3.47
2022-12-13T12:44:20.983Z,-3.64
2022-12-13T12:47:08.770Z,-3.77
2022-12-13T12:49:47.046Z,-3.77
2022-12-13T12:52:46.228Z,-4.03
2022-12-13T12:55:41.941Z,-3.86
2022-12-13T12:58:31.470Z,-3.92
2022-12-13T13:01:25.373Z,-4.01
2022-12-13T13:04:01.527Z,-4.21
2022-12-13T13:06:41.422Z,-4.39
2022-12-13T13:09:11.905Z,-4.40
2022-12-13T13:11:43.027Z,-4.36
2022-12-13T13:14:26.918Z,-4.43
2022-12-13T13:16:56.101Z,-4.56
2022-12-13T13:19:32.842Z,-4.47
2022-12-13T13:22:01.897Z,-4.66
2022-12-13T13:24:33.100Z,-4.72
2022-12-13T13:27:09.907Z,-4.89
2022-12-13T13:29:43.873Z,-5.03
2022-12-13T13:32:28.062Z,-5.10
2022-12-13T13:35:29.438Z,-5.06
2022-12-13T13:37:59.629Z,-5.20
2022-12-13T13:40:39.428Z,-5.16
2022-12-13T13:43:06.977Z,-5.20
2022-12-13T13:45:51.226Z,-5.45
2022-12-13T13:48:37.309Z,-5.24
2022-12-13T13:51:13.840Z,-5.44
2022-12-13T13:54:23.166Z,-5.50
2022-12-13T13:58:07.559Z,-5.59
2022-12-13T14:00:39.084Z,-5.77
2022-12-13T14:03:35.079Z,-5.91
2022-12-13T14:06:24.615Z,-6.00
2022-12-13T14:09:27.293Z,-6.13
2022-12-13T14:12:15.734Z,-6.23
2022-12-13T14:15:24.074Z,-6.29
2022-12-13T14:18:27.068Z,-6.32
2022-12-13T14:21:15.936Z,-6.42
2022-12-13T14:24:18.289Z,-6.49
2022-12-13T14:26:51.537Z,-6.65
2022-12-13T14:29:31.946Z,-6.53
2022-12-13T14:32:00.078Z,-6.63
2022-12-13T14:34:33.289Z,-6.63
2022-12-13T14:37:06.725Z,-6.64
2022-12-13T14:39:39.142Z,-6.52
2022-12-13T14:42:30.620Z,-6.49
2022-12-13T14:45:25.557Z,-6.27
2022-12-13T14:47:55.073Z,-6.35
2022-12-13T14:50:26.136Z,-6.14
2022-12-13T14:52:56.509Z,-5.98
2022-12-13T14:55:36.739Z,-5.85
2022-12-13T14:58:18.381Z,-5.69
2022-12-13T15:00:47.140Z,-5.71
2022-12-13T15:03:28.694Z,-5.54
2022-12-13T15:06:01.050Z,-5.52
2022-12-13T15:08:31.463Z,-5.61
2022-12-13T15:11:08.085Z,-5.49
2022-12-13T15:13:47.464Z,-5.26
2022-12-13T15:16:35.444Z,-5.22
2022-12-13T15:19:31.331Z,-5.34
2022-12-13T15:22:13.621Z,-5.26
2022-12-13T15:24:49.373Z,-5.27
2022-12-13T15:27:24.720Z,-5.38
2022-12-13T15:29:54.717Z,-5.43
2022-12-13T15:32:23.610Z,-5.64
2022-12-13T15:34:52.665Z,-5.84
2022-12-13T15:37:33.469Z,-5.97
2022-12-13T15:40:09.556Z,-6.03
2022-12-13T15:42:39.492Z,-6.04
2022-12-13T15:45:19.245Z,-6.08
2022-12-13T15:47:48.223Z,-6.06
2022-12-13T15:50:37.555Z,-5.88
2022-12-13T15:53:29.149Z,-5.90
2022-12-13T15:56:00.342Z,-5.97
2022-12-13T15:58:36.821Z,-5.87
2022-12-13T16:01:06.226Z,-5.94
2022-12-13T16:03:47.483Z,-5.90
2022-12-13T16:06:22.527Z,-5.93
2022-12-13T16:09:03.213Z,-5.88
2022-12-13T16:11:34.019Z,-5.99
2022-12-13T16:14:49.409Z,-5.97
2022-12-13T16:17:29.758Z,-6.14
2022-12-13T16:20:07.681Z,-6.25
2022-12-13T16:22:37.024Z,-6.27
2022-12-13T16:25:04.836Z,-6.34
2022-12-13T16:27:34.663Z,-6.33
2022-12-13T16:30:02.361Z,-6.25
2022-12-13T16:32:36.143Z,-6.28
2022-12-13T16:35:17.948Z,-6.28
2022-12-13T16:37:47.940Z,-6.33
2022-12-13T16:40:31.357Z,-6.13
2022-12-13T16:43:05.192Z,-6.13
2022-12-13T16:45:44.587Z,-5.72
2022-12-13T16:48:13.379Z,-5.73
2022-12-13T16:50:46.470Z,-5.68
2022-12-13T16:53:17.457Z,-5.85
2022-12-13T16:55:58.015Z,-5.68
2022-12-13T16:58:26.603Z,-5.60
2022-12-13T17:00:58.879Z,-5.41
2022-12-13T17:03:28.181Z,-5.40
2022-12-13T17:05:58.675Z,-5.35
2022-12-13T17:08:26.809Z,-5.44
2022-12-13T17:10:57.846Z,-5.51
2022-12-13T17:13:27.249Z,-5.58
2022-12-13T17:15:59.797Z,-5.61
2022-12-13T17:18:27.730Z,-5.73
2022-12-13T17:20:58.366Z,-5.81
2022-12-13T17:23:27.541Z,-5.80
2022-12-13T17:25:57.839Z,-5.94
2022-12-13T17:28:26.001Z,-5.97
2022-12-13T17:30:55.009Z,-6.03
2022-12-13T17:33:23.158Z,-6.11
2022-12-13T17:35:51.183Z,-6.16
2022-12-13T17:38:18.675Z,-6.14
2022-12-13T17:40:54.392Z,-6.12
2022-12-13T17:43:33.089Z,-6.10
2022-12-13T17:46:05.377Z,-6.01
2022-12-13T17:48:39.791Z,-5.98
2022-12-13T17:51:09.581Z,-5.97
2022-12-13T17:53:39.827Z,-5.85
2022-12-13T17:56:09.778Z,-5.90
2022-12-13T17:58:37.982Z,-5.92
2022-12-13T18:01:16.932Z,-5.93
2022-12-13T18:03:45.258Z,-5.92
2022-12-13T18:06:12.894Z,-5.89
2022-12-13T18:08:42.695Z,-5.86
2022-12-13T18:13:59.518Z,-5.68
2022-12-13T18:16:33.941Z,-5.61
2022-12-13T18:19:06.632Z,-5.53
2022-12-13T18:21:35.795Z,-5.54
2022-12-13T18:24:03.921Z,-5.43
2022-12-13T18:26:31.499Z,-5.35
2022-12-13T18:28:59.005Z,-5.35
2022-12-13T18:31:27.013Z,-5.27
2022-12-13T18:33:55.143Z,-5.25
2022-12-13T18:36:25.134Z,-5.20
2022-12-13T18:38:53.825Z,-5.20
2022-12-13T18:41:24.530Z,-5.21
2022-12-13T18:44:03.264Z,-5.13
2022-12-13T18:46:32.916Z,-5.01
2022-12-13T18:49:01.398Z,-5.09
2022-12-13T18:51:29.163Z,-5.65
2022-12-13T18:53:56.929Z,-6.17
2022-12-13T18:56:26.047Z,-6.46
2022-12-13T18:58:55.250Z,-6.79
2022-12-13T19:01:23.250Z,-7.03
2022-12-13T19:03:51.577Z,-7.15
2022-12-13T19:06:29.480Z,-7.22
2022-12-13T19:08:59.092Z,-7.39
2022-12-13T19:11:28.401Z,-7.85
2022-12-13T19:13:56.287Z,-7.77
2022-12-13T19:16:25.396Z,-7.81
2022-12-13T19:18:53.310Z,-7.95
2022-12-13T19:21:22.332Z,-7.97
2022-12-13T19:23:56.400Z,-7.90
2022-12-13T19:26:27.771Z,-7.81
2022-12-13T19:28:57.195Z,-7.82
2022-12-13T19:31:31.023Z,-7.79
2022-12-13T19:34:01.882Z,-7.77
2022-12-13T19:36:31.040Z,-7.73
2022-12-13T19:38:59.169Z,-7.76
2022-12-13T19:41:27.395Z,-7.63
2022-12-13T19:43:54.943Z,-7.59
2022-12-13T19:46:22.582Z,-7.65
2022-12-13T19:48:50.531Z,-7.62
2022-12-13T19:51:18.385Z,-7.63
2022-12-13T19:53:46.533Z,-7.52
2022-12-13T19:56:17.900Z,-7.35
2022-12-13T19:58:47.054Z,-7.34
2022-12-13T20:01:15.429Z,-7.35
2022-12-13T20:03:45.924Z,-7.40
2022-12-13T20:06:17.153Z,-7.42
2022-12-13T20:08:45.581Z,-7.36
2022-12-13T20:11:16.364Z,-7.34
2022-12-13T20:13:43.938Z,-7.33
2022-12-13T20:16:23.362Z,-7.28
2022-12-13T20:18:59.375Z,-7.28
2022-12-13T20:21:28.023Z,-7.36
2022-12-13T20:23:55.637Z,-7.37
2022-12-13T20:26:25.380Z,-7.41
2022-12-13T20:28:53.114Z,-7.43
2022-12-13T20:31:24.309Z,-7.41
2022-12-13T20:33:57.561Z,-7.37
2022-12-13T20:36:28.038Z,-7.41
2022-12-13T20:38:57.350Z,-7.44
2022-12-13T20:41:27.003Z,-7.56
2022-12-13T20:43:56.024Z,-7.65
2022-12-13T20:46:24.944Z,-7.82
2022-12-13T20:48:53.220Z,-7.78
2022-12-13T20:51:22.949Z,-7.99
2022-12-13T20:53:52.528Z,-8.11
2022-12-13T20:56:25.758Z,-8.26
2022-12-13T20:58:53.505Z,-8.33
2022-12-13T21:01:30.848Z,-8.24
2022-12-13T21:04:00.726Z,-8.30
2022-12-13T21:06:30.157Z,-8.15
2022-12-13T21:09:08.272Z,-8.10
2022-12-13T21:11:37.685Z,-7.92
2022-12-13T21:14:21.458Z,-7.72
2022-12-13T21:16:52.170Z,-7.58
2022-12-13T21:19:27.657Z,-7.42
2022-12-13T21:21:56.920Z,-7.24
2022-12-13T21:24:26.233Z,-7.09
2022-12-13T21:26:56.750Z,-6.98
2022-12-13T21:29:24.835Z,-6.86
2022-12-13T21:31:53.666Z,-6.76
2022-12-13T21:34:22.565Z,-6.70
2022-12-13T21:36:55.018Z,-6.62
2022-12-13T21:39:28.165Z,-6.43
2022-12-13T21:41:56.925Z,-6.50
2022-12-13T21:44:24.508Z,-6.40
2022-12-13T21:47:11.862Z,-6.33
2022-12-13T21:49:40.150Z,-6.25
2022-12-13T21:52:07.669Z,-6.16
2022-12-13T21:54:35.115Z,-6.04
2022-12-13T21:57:20.853Z,-5.99
2022-12-13T21:59:48.320Z,-5.90
2022-12-13T22:02:18.850Z,-5.79
2022-12-13T22:04:50.742Z,-5.73
2022-12-13T22:07:19.585Z,-5.73
2022-12-13T22:09:48.400Z,-5.78
2022-12-13T22:12:29.952Z,-5.78
2022-12-13T22:14:57.467Z,-5.75
2022-12-13T22:17:33.027Z,-5.76
2022-12-13T22:20:03.221Z,-5.88
2022-12-13T22:22:32.030Z,-6.05
2022-12-13T22:24:59.608Z,-6.18
2022-12-13T22:27:27.101Z,-6.22
2022-12-13T22:29:57.406Z,-6.20
2022-12-13T22:32:27.762Z,-6.27
2022-12-13T22:34:55.843Z,-6.22
2022-12-13T22:37:23.880Z,-6.22
2022-12-13T22:39:51.579Z,-6.21
2022-12-13T22:42:19.976Z,-6.17
2022-12-13T22:44:48.020Z,-6.20
2022-12-13T22:47:15.622Z,-6.29
2022-12-13T22:49:43.106Z,-6.21
2022-12-13T22:52:10.639Z,-6.22
2022-12-13T22:54:38.153Z,-6.33
2022-12-13T22:57:07.458Z,-6.06
2022-12-13T22:59:34.981Z,-5.92
2022-12-13T23:02:04.235Z,-5.80
2022-12-13T23:04:34.682Z,-5.68
2022-12-13T23:07:02.201Z,-5.55
2022-12-13T23:09:30.986Z,-5.54
2022-12-13T23:12:16.784Z,-5.50
2022-12-13T23:14:44.208Z,-5.36
2022-12-13T23:17:11.809Z,-5.36
2022-12-13T23:19:50.944Z,-5.39
2022-12-13T23:22:25.967Z,-5.25
2022-12-13T23:24:53.987Z,-5.27
2022-12-13T23:27:23.518Z,-5.16
2022-12-13T23:29:51.055Z,-5.12
2022-12-13T23:32:18.559Z,-5.11
2022-12-13T23:34:46.035Z,-5.14
2022-12-13T23:37:13.997Z,-5.18
2022-12-13T23:39:41.878Z,-5.25
2022-12-13T23:42:09.506Z,-5.20
2022-12-13T23:44:37.028Z,-5.25
2022-12-13T23:47:04.542Z,-5.20
2022-12-13T23:49:32.639Z,-5.19
2022-12-13T23:52:00.102Z,-5.19
2022-12-13T23:54:27.593Z,-5.21
2022-12-13T23:56:55.118Z,-5.21
2022-12-13T23:59:26.161Z,-5.18
